createdAt,value
2022-08-25T00:01:11.401Z,19.86
2022-08-25T00:04:20.370Z,20.09
2022-08-25T00:07:27.165Z,19.39
2022-08-25T00:10:34.894Z,19.04
2022-08-25T00:13:43.931Z,19.57
2022-08-25T00:16:50.519Z,19.67
2022-08-25T00:19:58.099Z,19.77
2022-08-25T00:23:04.482Z,19.81
2022-08-25T00:26:14.446Z,19.99
2022-08-25T00:29:21.312Z,19.84
2022-08-25T00:32:28.142Z,20.11
2022-08-25T00:35:36.089Z,20.15
2022-08-25T00:38:44.180Z,20.05
2022-08-25T00:41:52.543Z,20.07
2022-08-25T00:45:00.595Z,20.18
2022-08-25T00:48:07.371Z,20.10
2022-08-25T00:51:22.126Z,19.82
2022-08-25T00:54:33.659Z,19.67
2022-08-25T00:57:44.523Z,19.13
2022-08-25T01:00:53.122Z,19.19
2022-08-25T01:03:59.486Z,18.93
2022-08-25T01:07:07.914Z,19.32
2022-08-25T01:10:24.294Z,19.41
2022-08-25T01:13:35.259Z,19.58
2022-08-25T01:16:43.672Z,19.91
2022-08-25T01:19:50.269Z,19.41
2022-08-25T01:22:59.595Z,19.73
2022-08-25T01:26:10.621Z,19.93
2022-08-25T01:29:25.537Z,19.51
2022-08-25T01:32:35.992Z,19.80
2022-08-25T01:35:42.448Z,20.06
2022-08-25T01:38:50.402Z,19.77
2022-08-25T01:42:11.568Z,19.77
2022-08-25T01:45:18.586Z,19.70
2022-08-25T01:48:24.747Z,19.66
2022-08-25T01:51:36.083Z,19.68
2022-08-25T01:54:44.055Z,19.32
2022-08-25T01:57:50.526Z,19.39
2022-08-25T02:00:58.783Z,19.55
2022-08-25T02:04:06.099Z,19.41
2022-08-25T02:07:14.773Z,19.35
2022-08-25T02:10:22.556Z,19.46
2022-08-25T02:13:31.553Z,19.82
2022-08-25T02:16:41.337Z,19.36
2022-08-25T02:19:47.743Z,19.01
2022-08-25T02:22:56.873Z,18.78
2022-08-25T02:26:06.290Z,18.59
2022-08-25T02:29:13.014Z,18.75
2022-08-25T02:32:18.998Z,18.72
2022-08-25T02:35:25.412Z,19.03
2022-08-25T02:38:31.930Z,19.14
2022-08-25T02:41:40.190Z,19.64
2022-08-25T02:44:46.790Z,19.67
2022-08-25T02:47:53.734Z,19.53
2022-08-25T02:51:02.744Z,19.41
2022-08-25T02:54:09.463Z,19.63
2022-08-25T02:57:18.308Z,19.89
2022-08-25T03:00:24.958Z,19.58
2022-08-25T03:03:31.395Z,19.52
2022-08-25T03:06:38.160Z,19.44
2022-08-25T03:09:45.148Z,19.58
2022-08-25T03:12:53.071Z,19.65
2022-08-25T03:16:00.557Z,19.40
2022-08-25T03:19:07.260Z,19.31
2022-08-25T03:22:14.639Z,19.36
2022-08-25T03:25:38.874Z,19.72
2022-08-25T03:28:46.668Z,19.51
2022-08-25T03:31:53.452Z,19.75
2022-08-25T03:35:01.675Z,19.56
2022-08-25T03:38:07.986Z,19.38
2022-08-25T03:41:17.250Z,19.32
2022-08-25T03:44:24.926Z,19.22
2022-08-25T03:47:31.635Z,19.24
2022-08-25T03:50:38.815Z,19.24
2022-08-25T03:53:45.340Z,19.26
2022-08-25T03:56:51.601Z,19.17
2022-08-25T03:59:59.410Z,19.21
2022-08-25T04:03:05.956Z,19.17
2022-08-25T04:06:12.416Z,19.07
2022-08-25T04:09:19.062Z,19.33
2022-08-25T04:12:25.717Z,19.25
2022-08-25T04:15:33.319Z,18.81
2022-08-25T04:18:39.942Z,19.45
2022-08-25T04:21:46.594Z,19.40
2022-08-25T04:24:52.978Z,19.44
2022-08-25T04:27:59.443Z,19.53
2022-08-25T04:31:09.717Z,19.50
2022-08-25T04:34:29.419Z,19.58
2022-08-25T04:37:37.658Z,19.94
2022-08-25T04:40:44.261Z,19.75
2022-08-25T04:43:50.648Z,19.70
2022-08-25T04:46:58.167Z,19.89
2022-08-25T04:50:04.990Z,19.93
2022-08-25T04:53:11.130Z,19.94
2022-08-25T04:56:19.600Z,20.20
2022-08-25T04:59:27.338Z,20.37
2022-08-25T05:02:37.238Z,20.36
2022-08-25T05:05:43.979Z,20.49
2022-08-25T05:08:50.022Z,20.61
2022-08-25T05:11:56.472Z,20.66
2022-08-25T05:15:22.998Z,20.55
2022-08-25T05:18:32.311Z,20.76
2022-08-25T05:21:38.616Z,20.86
2022-08-25T05:24:44.959Z,21.10
2022-08-25T05:27:51.426Z,20.72
2022-08-25T05:31:00.461Z,20.96
2022-08-25T05:34:09.320Z,21.38
2022-08-25T05:37:15.907Z,20.88
2022-08-25T05:40:22.615Z,21.34
2022-08-25T05:43:28.866Z,21.64
2022-08-25T05:46:35.350Z,21.24
2022-08-25T05:49:42.909Z,21.39
2022-08-25T05:52:49.192Z,21.11
2022-08-25T05:55:57.704Z,21.70
2022-08-25T05:59:08.651Z,21.79
2022-08-25T06:02:32.990Z,21.65
2022-08-25T06:05:41.224Z,21.28
2022-08-25T06:08:48.074Z,22.27
2022-08-25T06:11:55.520Z,22.78
2022-08-25T06:15:02.087Z,22.74
2022-08-25T06:18:08.200Z,22.69
2022-08-25T06:21:17.415Z,23.16
2022-08-25T06:24:24.219Z,23.13
2022-08-25T06:27:30.604Z,22.55
2022-08-25T06:30:36.556Z,22.49
2022-08-25T06:33:42.639Z,22.66
2022-08-25T06:36:50.672Z,22.99
2022-08-25T06:39:57.100Z,22.81
2022-08-25T06:43:06.870Z,22.79
2022-08-25T06:46:14.218Z,22.81
2022-08-25T06:49:20.594Z,23.00
2022-08-25T06:52:29.482Z,22.33
2022-08-25T06:55:36.335Z,22.72
2022-08-25T06:58:43.054Z,23.10
2022-08-25T07:01:49.788Z,23.10
2022-08-25T07:04:58.902Z,22.64
2022-08-25T07:08:06.777Z,22.18
2022-08-25T07:11:16.390Z,22.62
2022-08-25T07:14:23.883Z,23.32
2022-08-25T07:17:30.302Z,22.46
2022-08-25T07:20:36.928Z,23.45
2022-08-25T07:23:44.810Z,23.11
2022-08-25T07:26:51.738Z,22.78
2022-08-25T07:29:59.044Z,23.58
2022-08-25T07:33:06.966Z,22.51
2022-08-25T07:36:12.708Z,23.20
2022-08-25T07:39:22.105Z,23.17
2022-08-25T07:42:28.456Z,23.34
2022-08-25T07:45:36.507Z,24.01
2022-08-25T07:48:53.590Z,23.58
2022-08-25T07:52:05.472Z,23.64
2022-08-25T07:55:17.868Z,22.66
2022-08-25T07:58:24.372Z,23.03
2022-08-25T08:01:30.312Z,23.18
2022-08-25T08:04:38.222Z,23.16
2022-08-25T08:07:47.565Z,22.96
2022-08-25T08:11:10.687Z,23.52
2022-08-25T08:14:17.859Z,24.50
2022-08-25T08:17:24.279Z,24.64
2022-08-25T08:20:31.827Z,23.85
2022-08-25T08:23:49.437Z,24.57
2022-08-25T08:26:58.935Z,24.03
2022-08-25T08:30:06.486Z,23.49
2022-08-25T08:33:12.985Z,24.00
2022-08-25T08:36:20.364Z,24.93
2022-08-25T08:39:27.219Z,24.39
2022-08-25T08:42:53.067Z,24.14
2022-08-25T08:45:59.511Z,24.22
2022-08-25T08:49:14.201Z,24.22
2022-08-25T08:52:26.003Z,25.09
2022-08-25T08:55:40.476Z,24.86
2022-08-25T08:58:53.921Z,25.50
2022-08-25T09:02:02.140Z,25.26
2022-08-25T09:05:12.426Z,25.94
2022-08-25T09:08:20.253Z,25.92
2022-08-25T09:11:51.974Z,24.99
2022-08-25T09:15:12.593Z,26.10
2022-08-25T09:18:27.748Z,26.86
2022-08-25T09:21:42.675Z,26.28
2022-08-25T09:25:03.424Z,26.93
2022-08-25T09:28:21.895Z,26.20
2022-08-25T09:31:34.300Z,26.65
2022-08-25T09:34:40.567Z,26.51
2022-08-25T09:37:57.627Z,27.70
2022-08-25T09:41:05.291Z,27.35
2022-08-25T09:44:20.447Z,28.40
2022-08-25T09:47:29.183Z,27.96
2022-08-25T09:50:35.933Z,28.14
2022-08-25T09:53:47.366Z,28.84
2022-08-25T09:56:55.700Z,28.88
2022-08-25T10:00:16.435Z,29.32
2022-08-25T10:03:25.062Z,28.78
2022-08-25T10:06:37.971Z,29.28
2022-08-25T10:09:45.064Z,28.52
2022-08-25T10:12:52.521Z,29.06
2022-08-25T10:16:20.118Z,29.01
2022-08-25T10:19:30.426Z,29.18
2022-08-25T10:22:36.897Z,28.82
2022-08-25T10:25:59.477Z,29.78
2022-08-25T10:29:27.151Z,30.30
2022-08-25T10:32:50.563Z,28.77
2022-08-25T10:36:03.796Z,28.89
2022-08-25T10:39:34.307Z,29.37
2022-08-25T10:42:54.966Z,30.43
2022-08-25T10:46:08.547Z,30.40
2022-08-25T10:49:20.662Z,30.22
2022-08-25T10:52:39.588Z,29.35
2022-08-25T10:55:57.807Z,29.38
2022-08-25T10:59:24.302Z,28.27
2022-08-25T11:02:58.224Z,28.88
2022-08-25T11:06:09.029Z,28.62
2022-08-25T11:09:22.573Z,28.58
2022-08-25T11:12:35.040Z,29.25
2022-08-25T11:16:06.565Z,30.50
2022-08-25T11:19:20.355Z,29.87
2022-08-25T11:22:31.575Z,29.21
2022-08-25T11:25:45.171Z,29.62
2022-08-25T11:29:00.125Z,29.87
2022-08-25T11:32:07.146Z,30.24
2022-08-25T11:35:15.422Z,30.88
2022-08-25T11:38:35.712Z,31.05
2022-08-25T11:41:56.057Z,30.02
2022-08-25T11:45:14.121Z,30.94
2022-08-25T11:48:33.031Z,29.82
2022-08-25T11:51:45.189Z,31.28
2022-08-25T11:54:51.952Z,30.14
2022-08-25T11:58:30.669Z,29.89
2022-08-25T12:02:29.279Z,30.46
2022-08-25T12:06:13.714Z,30.97
2022-08-25T12:09:23.557Z,30.79
2022-08-25T12:12:32.390Z,30.09
2022-08-25T12:15:57.857Z,30.53
2022-08-25T12:19:26.408Z,29.29
2022-08-25T12:22:58.678Z,29.94
2022-08-25T12:26:15.288Z,29.28
2022-08-25T12:29:42.438Z,28.57
2022-08-25T12:33:03.277Z,28.93
2022-08-25T12:36:12.873Z,28.96
2022-08-25T12:39:24.334Z,28.89
2022-08-25T12:42:36.965Z,29.24
2022-08-25T12:45:46.482Z,29.42
2022-08-25T12:48:58.259Z,29.23
2022-08-25T12:52:09.311Z,29.74
2022-08-25T12:55:19.414Z,29.50
2022-08-25T12:58:58.742Z,29.72
2022-08-25T13:02:21.160Z,30.59
2022-08-25T13:05:54.488Z,29.50
2022-08-25T13:09:50.175Z,29.13
2022-08-25T13:13:01.903Z,28.33
2022-08-25T13:16:18.843Z,28.72
2022-08-25T13:19:26.519Z,29.04
2022-08-25T13:22:32.894Z,29.31
2022-08-25T13:25:50.727Z,29.64
2022-08-25T13:29:00.404Z,29.16
2022-08-25T13:32:26.143Z,28.96
2022-08-25T13:35:38.454Z,28.76
2022-08-25T13:38:46.907Z,29.43
2022-08-25T13:41:58.193Z,30.07
2022-08-25T13:45:16.775Z,30.78
2022-08-25T13:48:36.115Z,30.85
2022-08-25T13:51:53.631Z,30.25
2022-08-25T13:55:01.823Z,30.10
2022-08-25T13:58:16.259Z,30.13
2022-08-25T14:01:48.065Z,30.21
2022-08-25T14:04:57.675Z,30.92
2022-08-25T14:08:16.124Z,31.26
2022-08-25T14:11:31.831Z,31.13
2022-08-25T14:14:38.183Z,31.22
2022-08-25T14:21:00.172Z,31.04
2022-08-25T14:24:07.786Z,30.94
2022-08-25T14:27:18.863Z,30.72
2022-08-25T14:30:29.036Z,30.81
2022-08-25T14:33:39.890Z,30.67
2022-08-25T14:36:48.539Z,31.03
2022-08-25T14:39:55.028Z,31.24
2022-08-25T14:43:02.122Z,30.78
2022-08-25T14:46:19.525Z,31.09
2022-08-25T14:49:29.916Z,31.13
2022-08-25T14:52:37.403Z,30.63
2022-08-25T14:55:44.218Z,30.68
2022-08-25T14:58:54.209Z,30.14
2022-08-25T15:02:01.389Z,29.88
2022-08-25T15:05:11.886Z,29.84
2022-08-25T15:08:36.795Z,29.72
2022-08-25T15:11:46.946Z,29.34
2022-08-25T15:14:53.439Z,29.02
2022-08-25T15:18:01.249Z,29.24
2022-08-25T15:21:08.648Z,29.10
2022-08-25T15:24:18.489Z,28.91
2022-08-25T15:27:25.126Z,28.68
2022-08-25T15:30:37.195Z,28.59
2022-08-25T15:33:44.187Z,28.65
2022-08-25T15:36:50.846Z,28.84
2022-08-25T15:39:58.962Z,28.42
2022-08-25T15:43:05.801Z,28.51
2022-08-25T15:46:18.924Z,27.92
2022-08-25T15:49:25.695Z,28.09
2022-08-25T15:52:47.639Z,27.73
2022-08-25T15:55:57.577Z,27.46
2022-08-25T15:59:08.615Z,27.68
2022-08-25T16:02:15.513Z,27.47
2022-08-25T16:05:25.636Z,27.57
2022-08-25T16:08:33.671Z,27.18
2022-08-25T16:11:43.478Z,27.06
2022-08-25T16:14:49.994Z,26.77
2022-08-25T16:18:00.541Z,26.68
2022-08-25T16:21:12.337Z,26.34
2022-08-25T16:24:19.018Z,26.49
2022-08-25T16:27:26.895Z,26.54
2022-08-25T16:30:52.542Z,26.40
2022-08-25T16:33:59.273Z,26.38
2022-08-25T16:37:06.451Z,25.91
2022-08-25T16:40:15.104Z,25.65
2022-08-25T16:43:23.340Z,25.79
2022-08-25T16:46:31.279Z,25.81
2022-08-25T16:49:38.234Z,25.56
2022-08-25T16:53:01.943Z,25.47
2022-08-25T16:56:11.453Z,25.43
2022-08-25T16:59:19.807Z,25.43
2022-08-25T17:02:26.478Z,25.37
2022-08-25T17:05:34.613Z,25.17
2022-08-25T17:08:41.198Z,25.43
2022-08-25T17:11:49.164Z,25.37
2022-08-25T17:14:56.955Z,25.06
2022-08-25T17:18:03.614Z,24.83
2022-08-25T17:21:19.548Z,24.80
2022-08-25T17:24:31.859Z,24.88
2022-08-25T17:27:40.008Z,24.84
2022-08-25T17:30:48.178Z,24.76
2022-08-25T17:33:54.763Z,24.86
2022-08-25T17:37:01.487Z,25.13
2022-08-25T17:40:11.120Z,24.77
2022-08-25T17:43:17.787Z,24.34
2022-08-25T17:46:26.603Z,24.40
2022-08-25T17:49:33.631Z,24.57
2022-08-25T17:52:39.909Z,24.74
2022-08-25T17:55:47.278Z,24.88
2022-08-25T17:58:55.264Z,24.67
2022-08-25T18:02:03.164Z,24.51
2022-08-25T18:05:12.655Z,24.51
2022-08-25T18:08:19.442Z,24.30
2022-08-25T18:11:26.021Z,24.27
2022-08-25T18:14:32.312Z,24.18
2022-08-25T18:17:40.615Z,24.37
2022-08-25T18:20:47.430Z,24.30
2022-08-25T18:23:56.003Z,24.33
2022-08-25T18:27:02.995Z,24.42
2022-08-25T18:30:11.055Z,23.62
2022-08-25T18:33:19.147Z,23.21
2022-08-25T18:36:25.649Z,23.99
2022-08-25T18:39:54.834Z,23.70
2022-08-25T18:43:03.371Z,23.50
2022-08-25T18:46:10.377Z,23.63
2022-08-25T18:49:18.490Z,23.64
2022-08-25T18:52:26.554Z,23.08
2022-08-25T18:55:36.447Z,23.11
2022-08-25T18:58:42.695Z,23.09
2022-08-25T19:01:50.020Z,22.85
2022-08-25T19:05:00.689Z,22.96
2022-08-25T19:08:13.602Z,23.15
2022-08-25T19:11:23.806Z,22.83
2022-08-25T19:14:30.872Z,22.55
2022-08-25T19:17:37.768Z,23.08
2022-08-25T19:20:46.055Z,23.02
2022-08-25T19:23:53.653Z,22.79
2022-08-25T19:27:02.437Z,23.17
2022-08-25T19:30:11.411Z,23.19
2022-08-25T19:33:31.406Z,22.94
2022-08-25T19:36:47.521Z,22.93
2022-08-25T19:39:54.266Z,22.63
2022-08-25T19:43:00.863Z,22.48
2022-08-25T19:46:07.823Z,22.33
2022-08-25T19:49:16.638Z,22.44
2022-08-25T19:52:26.589Z,22.51
2022-08-25T19:55:33.599Z,22.45
2022-08-25T19:58:39.891Z,22.45
2022-08-25T20:01:49.395Z,22.40
2022-08-25T20:04:59.429Z,22.16
2022-08-25T20:08:08.052Z,22.29
2022-08-25T20:11:14.931Z,22.30
2022-08-25T20:14:22.000Z,22.11
2022-08-25T20:17:29.300Z,22.33
2022-08-25T20:20:35.632Z,22.53
2022-08-25T20:24:00.547Z,22.52
2022-08-25T20:27:07.413Z,22.54
2022-08-25T20:30:16.746Z,22.50
2022-08-25T20:33:23.489Z,22.39
2022-08-25T20:36:30.254Z,22.54
2022-08-25T20:39:40.018Z,22.51
2022-08-25T20:42:46.714Z,22.15
2022-08-25T20:46:01.420Z,22.37
2022-08-25T20:49:08.255Z,22.34
2022-08-25T20:52:15.468Z,22.53
2022-08-25T20:55:23.707Z,22.53
2022-08-25T20:58:30.308Z,22.48
2022-08-25T21:01:40.056Z,22.45
2022-08-25T21:04:49.081Z,22.18
2022-08-25T21:07:56.676Z,22.13
2022-08-25T21:11:04.238Z,22.03
2022-08-25T21:14:10.719Z,22.04
2022-08-25T21:17:19.170Z,22.20
2022-08-25T21:20:27.106Z,22.17
2022-08-25T21:23:33.414Z,21.74
2022-08-25T21:26:48.723Z,21.72
2022-08-25T21:29:55.678Z,21.78
2022-08-25T21:33:02.364Z,21.93
2022-08-25T21:36:10.602Z,21.89
2022-08-25T21:39:19.446Z,21.74
2022-08-25T21:42:27.697Z,21.85
2022-08-25T21:45:46.376Z,21.61
2022-08-25T21:48:54.038Z,21.39
2022-08-25T21:52:02.235Z,21.54
2022-08-25T21:55:15.690Z,21.51
2022-08-25T21:58:23.901Z,21.52
2022-08-25T22:01:30.467Z,21.18
2022-08-25T22:04:38.915Z,21.37
2022-08-25T22:07:45.215Z,21.41
2022-08-25T22:10:52.227Z,21.40
2022-08-25T22:14:00.744Z,21.42
2022-08-25T22:17:10.017Z,21.16
2022-08-25T22:20:20.542Z,21.33
2022-08-25T22:23:28.347Z,21.51
2022-08-25T22:26:35.186Z,21.29
2022-08-25T22:29:43.694Z,21.35
2022-08-25T22:32:50.390Z,21.15
2022-08-25T22:35:59.768Z,21.03
2022-08-25T22:39:09.107Z,21.09
2022-08-25T22:42:15.500Z,20.84
2022-08-25T22:45:23.494Z,21.01
2022-08-25T22:48:30.259Z,21.07
2022-08-25T22:51:37.428Z,20.96
2022-08-25T22:54:44.325Z,20.67
2022-08-25T22:57:50.568Z,20.44
2022-08-25T23:01:02.879Z,20.58
2022-08-25T23:04:10.886Z,20.06
2022-08-25T23:07:17.922Z,20.55
2022-08-25T23:10:25.654Z,20.29
2022-08-25T23:13:34.304Z,20.62
2022-08-25T23:16:44.588Z,19.79
2022-08-25T23:19:51.110Z,20.06
2022-08-25T23:22:56.587Z,20.34
2022-08-25T23:26:03.290Z,20.49
2022-08-25T23:29:18.329Z,20.26
2022-08-25T23:32:28.054Z,20.36
2022-08-25T23:35:34.604Z,20.42
2022-08-25T23:38:43.978Z,20.06
2022-08-25T23:41:51.314Z,20.36
2022-08-25T23:44:57.412Z,20.13
2022-08-25T23:48:06.532Z,20.02
2022-08-25T23:51:12.967Z,19.38
2022-08-25T23:54:21.485Z,19.78
2022-08-25T23:57:27.805Z,19.98
